createdAt,value
2018-06-08T00:00:29.277Z,10.70
2018-06-08T00:02:58.203Z,12.03
2018-06-08T00:05:27.743Z,11.20
2018-06-08T00:07:56.671Z,9.57
2018-06-08T00:10:25.795Z,11.77
2018-06-08T00:12:56.591Z,9.63
2018-06-08T00:15:26.858Z,9.90
2018-06-08T00:17:57.411Z,9.00
2018-06-08T00:20:26.344Z,7.90
2018-06-08T00:22:55.379Z,9.80
2018-06-08T00:25:24.399Z,13.30
2018-06-08T00:27:54.647Z,9.40
2018-06-08T00:30:23.692Z,10.40
2018-06-08T00:32:54.750Z,9.10
2018-06-08T00:35:23.848Z,12.67
2018-06-08T00:37:53.865Z,10.07
2018-06-08T00:40:22.895Z,12.20
2018-06-08T00:42:53.383Z,10.57
2018-06-08T00:45:22.436Z,11.60
2018-06-08T00:47:52.653Z,10.43
2018-06-08T00:50:21.832Z,11.97
2018-06-08T00:52:50.802Z,12.83
2018-06-08T00:55:19.732Z,9.90
2018-06-08T00:57:50.511Z,11.53
2018-06-08T01:00:19.444Z,11.80
2018-06-08T01:02:48.532Z,10.20
2018-06-08T01:05:17.943Z,11.03
2018-06-08T01:07:46.885Z,12.13
2018-06-08T01:10:17.484Z,12.50
2018-06-08T01:12:46.481Z,12.90
2018-06-08T01:15:16.663Z,11.37
2018-06-08T01:17:47.011Z,10.70
2018-06-08T01:20:15.927Z,12.10
2018-06-08T01:22:45.212Z,11.50
2018-06-08T01:25:14.151Z,10.03
2018-06-08T01:27:43.219Z,14.30
2018-06-08T01:30:12.159Z,11.73
2018-06-08T01:32:41.352Z,12.50
2018-06-08T01:35:11.542Z,10.67
2018-06-08T01:37:42.238Z,12.60
2018-06-08T01:40:11.144Z,10.77
2018-06-08T01:42:41.968Z,11.80
2018-06-08T01:45:10.870Z,11.17
2018-06-08T01:47:41.259Z,12.30
2018-06-08T01:50:10.188Z,12.50
2018-06-08T01:52:39.478Z,11.47
2018-06-08T01:55:08.407Z,13.10
2018-06-08T01:57:51.024Z,10.83
2018-06-08T02:00:19.960Z,10.90
2018-06-08T02:02:49.184Z,10.47
2018-06-08T02:05:18.131Z,12.80
2018-06-08T02:07:49.076Z,11.60
2018-06-08T02:10:18.004Z,11.80
2018-06-08T02:12:48.324Z,12.47
2018-06-08T02:15:18.754Z,13.50
2018-06-08T02:17:49.078Z,11.43
2018-06-08T02:20:17.764Z,11.20
2018-06-08T02:22:47.060Z,14.40
2018-06-08T02:25:15.739Z,10.63
2018-06-08T02:27:44.573Z,14.53
2018-06-08T02:30:13.592Z,12.07
2018-06-08T02:32:43.008Z,10.60
2018-06-08T02:35:13.460Z,11.63
2018-06-08T02:37:44.004Z,14.57
2018-06-08T02:40:12.953Z,13.37
2018-06-08T02:42:43.414Z,13.30
2018-06-08T02:45:12.348Z,13.03
2018-06-08T02:47:43.157Z,12.93
2018-06-08T04:12:12.434Z,11.17
2018-06-08T04:14:42.669Z,11.23
2018-06-08T04:17:13.288Z,12.83
2018-06-08T04:19:42.071Z,14.80
2018-06-08T04:22:10.895Z,14.90
2018-06-08T04:24:39.899Z,11.47
2018-06-08T04:27:08.823Z,11.27
2018-06-08T04:29:39.311Z,13.77
2018-06-08T04:32:08.612Z,12.03
2018-06-08T04:34:38.933Z,16.47
2018-06-08T04:37:09.359Z,14.97
2018-06-08T04:39:38.606Z,12.33
2018-06-08T04:42:09.376Z,11.50
2018-06-08T04:44:38.679Z,13.27
2018-06-08T04:47:09.319Z,10.70
2018-06-08T04:49:38.362Z,11.87
2018-06-08T04:52:07.271Z,11.80
2018-06-08T04:54:37.719Z,12.97
2018-06-08T04:57:08.052Z,14.00
2018-06-08T04:59:46.163Z,12.70
2018-06-08T05:02:16.479Z,11.30
2018-06-08T05:04:45.549Z,15.57
2018-06-08T05:07:14.507Z,14.03
2018-06-08T05:09:45.162Z,11.13
2018-06-08T05:12:16.036Z,12.17
2018-06-08T05:14:46.471Z,11.43
2018-06-08T05:17:17.003Z,12.73
2018-06-08T05:19:46.419Z,17.37
2018-06-08T05:23:39.853Z,11.90
2018-06-08T05:26:09.394Z,11.70
2018-06-08T05:28:38.332Z,18.10
2018-06-08T05:31:07.436Z,12.30
2018-06-08T05:33:38.100Z,12.57
2018-06-08T05:36:08.142Z,13.87
2018-06-08T05:38:38.962Z,12.83
2018-06-08T05:41:09.498Z,12.10
2018-06-08T05:43:38.508Z,14.80
2018-06-08T05:46:07.431Z,13.77
2018-06-08T05:48:37.838Z,12.97
2018-06-08T05:51:06.703Z,12.60
2018-06-08T05:53:36.952Z,12.60
2018-06-08T05:56:22.878Z,12.13
2018-06-08T05:58:53.402Z,12.37
2018-06-08T06:01:22.308Z,11.50
2018-06-08T06:03:51.243Z,14.03
2018-06-08T06:06:20.391Z,12.40
2018-06-08T06:08:50.420Z,12.90
2018-06-08T06:11:21.538Z,10.97
2018-06-08T06:13:52.228Z,11.53
2018-06-08T06:16:26.656Z,11.43
2018-06-08T06:18:55.686Z,14.17
2018-06-08T06:21:24.721Z,13.27
2018-06-08T06:23:53.403Z,15.30
2018-06-08T06:26:22.747Z,13.23
2018-06-08T06:28:51.676Z,14.40
2018-06-08T06:31:20.784Z,14.63
2018-06-08T06:36:26.202Z,13.23
2018-06-08T06:38:56.122Z,14.27
2018-06-08T06:41:26.617Z,15.23
2018-06-08T06:43:55.566Z,17.50
2018-06-08T06:46:28.698Z,15.73
2018-06-08T06:48:57.396Z,12.13
2018-06-08T06:51:26.284Z,11.67
2018-06-08T06:53:56.810Z,16.97
2018-06-08T06:56:27.379Z,15.80
2018-06-08T06:58:57.980Z,16.73
2018-06-08T07:01:27.140Z,14.83
2018-06-08T07:03:56.027Z,14.53
2018-06-08T07:06:25.226Z,13.33
2018-06-08T07:08:55.364Z,12.63
2018-06-08T07:11:26.017Z,12.13
2018-06-08T07:13:56.556Z,14.53
2018-06-08T07:16:27.019Z,16.63
2018-06-08T07:18:56.034Z,12.90
2018-06-08T07:21:25.035Z,11.83
2018-06-08T07:23:54.328Z,12.20
2018-06-08T07:26:23.423Z,11.23
2018-06-08T07:28:52.319Z,13.20
2018-06-08T07:31:21.413Z,14.80
2018-06-08T07:36:28.139Z,12.63
2018-06-08T07:38:58.324Z,13.37
2018-06-08T07:41:28.795Z,12.37
2018-06-08T07:43:57.712Z,12.70
2018-06-08T07:46:28.691Z,14.10
2018-06-08T07:48:57.732Z,13.50
2018-06-08T07:51:28.756Z,13.00
2018-06-08T07:53:59.052Z,13.03
2018-06-08T07:56:28.283Z,13.63
2018-06-08T07:58:58.724Z,13.70
2018-06-08T08:01:27.723Z,11.20
2018-06-08T08:03:57.994Z,12.80
2018-06-08T08:06:27.123Z,12.40
2018-06-08T08:08:57.519Z,11.97
2018-06-08T08:11:27.991Z,11.40
2018-06-08T08:13:58.616Z,13.13
2018-06-08T08:16:29.247Z,11.70
2018-06-08T08:18:58.027Z,12.03
2018-06-08T08:21:26.920Z,11.53
2018-06-08T08:23:55.844Z,13.60
2018-06-08T08:26:25.346Z,12.30
2018-06-08T08:28:54.125Z,11.87
2018-06-08T08:31:23.200Z,12.87
2018-06-08T08:34:03.082Z,10.43
2018-06-08T08:39:08.868Z,10.53
2018-06-08T08:41:39.274Z,10.40
2018-06-08T08:44:07.945Z,10.30
2018-06-08T08:46:38.312Z,10.00
2018-06-08T08:49:08.615Z,12.83
2018-06-08T08:51:39.444Z,11.93
2018-06-08T08:54:09.967Z,11.23
2018-06-08T08:56:40.616Z,11.20
2018-06-08T08:59:11.374Z,9.73
2018-06-08T09:01:40.285Z,14.40
2018-06-08T09:04:09.196Z,10.80
2018-06-08T09:06:38.495Z,11.63
2018-06-08T09:09:08.760Z,10.63
2018-06-08T09:11:39.055Z,12.13
2018-06-08T09:14:09.711Z,10.60
2018-06-08T09:16:40.183Z,10.33
2018-06-08T09:19:09.108Z,11.10
2018-06-08T09:21:38.344Z,10.47
2018-06-08T09:24:07.503Z,11.63
2018-06-08T09:26:37.781Z,11.07
2018-06-08T09:29:06.680Z,9.47
2018-06-08T09:31:35.695Z,9.73
2018-06-08T09:34:06.340Z,8.40
2018-06-08T09:36:52.979Z,8.40
2018-06-08T09:39:21.883Z,8.77
2018-06-08T09:41:52.268Z,12.57
2018-06-08T09:44:21.225Z,8.07
2018-06-08T09:46:52.036Z,8.63
2018-06-08T09:49:22.776Z,13.63
2018-06-08T09:51:51.593Z,7.67
2018-06-08T09:54:20.379Z,7.57
2018-06-08T09:56:50.750Z,10.60
2018-06-08T09:59:20.783Z,7.40
2018-06-08T10:01:49.988Z,7.47
2018-06-08T10:04:18.887Z,8.20
2018-06-08T10:06:47.947Z,8.80
2018-06-08T10:09:18.347Z,14.40
2018-06-08T10:11:48.743Z,9.57
2018-06-08T10:14:19.073Z,7.90
2018-06-08T10:16:49.532Z,8.70
2018-06-08T10:19:18.511Z,7.43
2018-06-08T10:21:47.538Z,9.23
2018-06-08T10:24:16.420Z,6.40
2018-06-08T10:26:45.620Z,7.40
2018-06-08T10:29:14.623Z,6.43
2018-06-08T10:31:43.861Z,6.73
2018-06-08T10:34:14.084Z,7.03
2018-06-08T10:36:56.191Z,6.87
2018-06-08T10:39:25.142Z,6.57
2018-06-08T10:41:55.591Z,5.80
2018-06-08T10:44:25.689Z,6.60
2018-06-08T10:46:56.273Z,6.50
2018-06-08T10:49:25.235Z,8.20
2018-06-08T10:51:54.285Z,7.63
2018-06-08T10:54:23.706Z,7.20
2018-06-08T10:56:52.721Z,6.07
2018-06-08T10:59:23.370Z,6.73
2018-06-08T11:01:52.258Z,6.40
2018-06-08T11:04:21.026Z,6.73
2018-06-08T11:06:50.057Z,8.57
2018-06-08T11:09:20.320Z,6.40
2018-06-08T11:11:50.291Z,7.70
2018-06-08T11:14:20.768Z,5.97
2018-06-08T11:16:50.947Z,6.57
2018-06-08T11:19:19.927Z,7.63
2018-06-08T11:21:49.204Z,7.40
2018-06-08T11:24:18.299Z,6.40
2018-06-08T11:26:47.292Z,7.83
2018-06-08T11:29:16.217Z,7.27
2018-06-08T11:31:45.141Z,6.63
2018-06-08T11:34:15.613Z,7.10
2018-06-08T11:36:57.199Z,6.87
2018-06-08T11:39:26.242Z,7.97
2018-06-08T11:41:56.758Z,7.10
2018-06-08T11:44:27.075Z,6.87
2018-06-08T11:46:57.513Z,8.33
2018-06-08T11:49:26.187Z,10.20
2018-06-08T11:51:55.039Z,7.13
2018-06-08T11:54:24.124Z,7.20
2018-06-08T11:56:53.063Z,8.43
2018-06-08T11:59:23.427Z,7.17
2018-06-08T12:01:52.384Z,10.00
2018-06-08T12:04:21.603Z,6.27
2018-06-08T12:06:50.306Z,8.83
2018-06-08T12:09:20.365Z,5.50
2018-06-08T12:11:50.346Z,7.57
2018-06-08T12:14:20.502Z,6.00
2018-06-08T12:16:50.765Z,6.20
2018-06-08T12:19:19.786Z,9.80
2018-06-08T12:21:48.701Z,5.40
2018-06-08T12:24:17.708Z,6.33
2018-06-08T12:26:46.808Z,5.90
2018-06-08T12:29:15.687Z,6.00
2018-06-08T12:31:44.598Z,6.83
2018-06-08T12:34:15.167Z,8.67
2018-06-08T12:36:58.791Z,6.93
2018-06-08T12:39:29.321Z,5.63
2018-06-08T12:41:59.714Z,7.00
2018-06-08T12:44:28.895Z,6.60
2018-06-08T12:46:59.358Z,5.97
2018-06-08T12:49:28.362Z,6.60
2018-06-08T12:51:57.303Z,6.00
2018-06-08T12:54:26.440Z,9.20
2018-06-08T12:56:55.359Z,6.80
2018-06-08T12:59:25.778Z,7.23
2018-06-08T13:01:55.040Z,7.10
2018-06-08T13:04:23.903Z,6.90
2018-06-08T13:06:53.240Z,6.20
2018-06-08T13:09:23.704Z,8.30
2018-06-08T13:11:54.299Z,6.43
2018-06-08T13:14:24.771Z,6.90
2018-06-08T13:16:55.709Z,11.07
2018-06-08T13:19:24.496Z,5.73
2018-06-08T13:21:54.981Z,7.17
2018-06-08T13:24:25.447Z,6.73
2018-06-08T13:26:54.408Z,7.27
2018-06-08T13:29:24.459Z,6.07
2018-06-08T13:31:55.097Z,9.37
2018-06-08T13:34:25.459Z,6.87
2018-06-08T13:37:01.387Z,8.03
2018-06-08T13:39:31.837Z,6.67
2018-06-08T13:42:02.560Z,8.67
2018-06-08T13:44:31.574Z,6.40
2018-06-08T13:47:02.788Z,6.53
2018-06-08T13:49:31.691Z,6.47
2018-06-08T13:52:02.636Z,6.23
2018-06-08T13:54:31.662Z,7.80
2018-06-08T13:57:00.976Z,7.10
2018-06-08T13:59:31.301Z,6.13
2018-06-08T14:02:00.208Z,6.63
2018-06-08T14:04:34.244Z,6.87
2018-06-08T14:07:05.071Z,5.90
2018-06-08T14:09:34.546Z,6.53
2018-06-08T14:12:04.911Z,8.30
2018-06-08T14:14:35.342Z,6.60
2018-06-08T14:17:06.075Z,6.03
2018-06-08T14:19:35.382Z,6.70
2018-06-08T14:22:05.454Z,6.33
2018-06-08T14:24:34.351Z,7.23
2018-06-08T14:27:03.444Z,6.90
2018-06-08T14:29:33.563Z,6.67
2018-06-08T14:32:02.483Z,5.47
2018-06-08T14:34:32.788Z,5.93
2018-06-08T14:37:04.060Z,8.43
2018-06-08T14:39:33.232Z,6.63
2018-06-08T14:42:03.441Z,6.40
2018-06-08T14:44:32.555Z,5.67
2018-06-08T14:47:03.219Z,7.30
2018-06-08T14:49:32.555Z,5.70
2018-06-08T14:52:01.470Z,6.27
2018-06-08T14:54:30.648Z,5.20
2018-06-08T14:56:59.592Z,5.27
2018-06-08T14:59:29.948Z,9.10
2018-06-08T15:01:58.866Z,5.30
2018-06-08T15:07:10.071Z,5.03
2018-06-08T15:09:39.157Z,5.50
2018-06-08T15:12:10.266Z,5.40
2018-06-08T15:14:40.992Z,5.37
2018-06-08T15:17:11.629Z,5.27
2018-06-08T15:19:40.391Z,5.20
2018-06-08T15:22:10.709Z,5.10
2018-06-08T15:24:41.383Z,6.03
2018-06-08T15:27:11.704Z,6.47
2018-06-08T15:29:40.399Z,6.30
2018-06-08T15:32:10.663Z,5.90
2018-06-08T15:34:40.976Z,5.90
2018-06-08T15:37:11.589Z,5.60
2018-06-08T15:39:40.501Z,7.47
2018-06-08T15:42:11.080Z,6.03
2018-06-08T15:44:39.977Z,4.70
2018-06-08T15:47:10.403Z,5.17
2018-06-08T15:49:39.405Z,5.40
2018-06-08T15:52:09.812Z,4.97
2018-06-08T15:54:40.308Z,6.37
2018-06-08T15:57:09.328Z,6.27
2018-06-08T15:59:39.760Z,5.70
2018-06-08T16:02:10.259Z,5.53
2018-06-08T16:04:39.171Z,5.40
2018-06-08T16:07:08.396Z,6.73
2018-06-08T16:09:37.495Z,5.13
2018-06-08T16:12:07.942Z,6.00
2018-06-08T16:14:38.361Z,5.20
2018-06-08T16:17:08.628Z,5.30
2018-06-08T16:19:37.849Z,5.67
2018-06-08T16:22:06.511Z,5.60
2018-06-08T16:24:36.784Z,5.03
2018-06-08T16:27:05.999Z,5.17
2018-06-08T16:29:36.776Z,5.20
2018-06-08T16:32:07.227Z,4.57
2018-06-08T16:34:37.644Z,5.80
2018-06-08T16:37:08.420Z,5.33
2018-06-08T16:39:37.579Z,5.80
2018-06-08T16:42:07.940Z,5.97
2018-06-08T16:44:38.364Z,4.97
2018-06-08T16:47:08.784Z,4.40
2018-06-08T16:49:37.743Z,5.17
2018-06-08T16:52:06.992Z,5.10
2018-06-08T16:54:37.618Z,6.30
2018-06-08T16:57:06.723Z,5.50
2018-06-08T16:59:36.584Z,4.87
2018-06-08T17:02:07.080Z,5.23
2018-06-08T17:04:44.176Z,4.90
2018-06-08T17:07:14.064Z,5.47
2018-06-08T17:09:48.260Z,6.80
2018-06-08T17:12:18.548Z,5.50
2018-06-08T17:14:48.720Z,5.30
2018-06-08T17:17:19.463Z,6.03
2018-06-08T17:19:49.419Z,5.97
2018-06-08T17:22:19.717Z,7.03
2018-06-08T17:24:48.628Z,5.73
2018-06-08T17:27:19.127Z,5.23
2018-06-08T17:29:48.951Z,7.10
2018-06-08T17:32:17.663Z,7.63
2018-06-08T17:34:48.268Z,6.57
2018-06-08T17:37:18.728Z,7.10
2018-06-08T17:39:47.633Z,8.40
2018-06-08T17:42:17.759Z,6.83
2018-06-08T17:44:46.581Z,6.80
2018-06-08T17:47:17.068Z,5.07
2018-06-08T17:49:46.695Z,10.23
2018-06-08T17:52:16.953Z,6.37
2018-06-08T17:54:45.631Z,6.00
2018-06-08T17:57:15.056Z,6.80
2018-06-08T17:59:45.476Z,6.43
2018-06-08T18:02:16.219Z,7.87
2018-06-08T18:04:45.126Z,7.27
2018-06-08T18:07:19.717Z,6.63
2018-06-08T18:09:48.707Z,7.50
2018-06-08T18:12:19.656Z,6.73
2018-06-08T18:14:49.977Z,6.80
2018-06-08T18:17:20.344Z,11.60
2018-06-08T18:19:50.951Z,6.97
2018-06-08T18:22:19.860Z,6.97
2018-06-08T18:24:51.548Z,6.80
2018-06-08T18:27:22.119Z,7.47
2018-06-08T18:29:51.028Z,7.13
2018-06-08T18:32:20.311Z,6.70
2018-06-08T18:34:50.903Z,7.43
2018-06-08T18:37:21.156Z,7.87
2018-06-08T18:39:49.892Z,9.17
2018-06-08T18:42:20.475Z,7.17
2018-06-08T18:44:50.401Z,6.90
2018-06-08T18:47:20.672Z,6.30
2018-06-08T18:49:49.905Z,6.60
2018-06-08T18:52:18.800Z,6.47
2018-06-08T18:54:47.824Z,7.07
2018-06-08T18:57:16.772Z,8.27
2018-06-08T18:59:47.041Z,8.17
2018-06-08T19:02:17.566Z,7.57
2018-06-08T19:04:46.875Z,7.80
2018-06-08T19:07:19.802Z,7.77
2018-06-08T19:09:49.113Z,6.90
2018-06-08T19:12:19.436Z,7.37
2018-06-08T19:14:49.900Z,6.80
2018-06-08T19:17:20.279Z,6.87
2018-06-08T19:19:50.439Z,7.13
2018-06-08T19:22:20.589Z,7.20
2018-06-08T19:24:50.912Z,7.37
2018-06-08T19:27:19.608Z,7.37
2018-06-08T19:29:48.387Z,7.63
2018-06-08T19:32:17.436Z,7.40
2018-06-08T19:34:47.789Z,7.93
2018-06-08T19:37:18.277Z,6.10
2018-06-08T19:39:47.252Z,9.70
2018-06-08T19:42:18.372Z,8.47
2018-06-08T19:44:47.375Z,6.83
2018-06-08T19:47:18.360Z,7.90
2018-06-08T19:49:47.383Z,7.70
2018-06-08T19:52:17.103Z,7.67
2018-06-08T19:54:46.126Z,8.00
2018-06-08T19:57:15.118Z,7.30
2018-06-08T19:59:45.347Z,8.13
2018-06-08T20:02:16.013Z,8.10
2018-06-08T20:06:15.144Z,8.67
2018-06-08T20:08:45.547Z,8.30
2018-06-08T20:11:16.416Z,7.87
2018-06-08T20:13:51.170Z,6.97
2018-06-08T20:16:21.571Z,8.83
2018-06-08T20:18:51.606Z,9.50
2018-06-08T20:21:27.567Z,7.43
2018-06-08T20:23:57.539Z,7.93
2018-06-08T20:26:26.463Z,7.53
2018-06-08T20:28:55.388Z,8.20
2018-06-08T20:31:24.435Z,8.50
2018-06-08T20:34:03.680Z,8.77
2018-06-08T20:36:32.638Z,8.33
2018-06-08T20:39:03.309Z,8.07
2018-06-08T20:41:35.292Z,8.20
2018-06-08T20:44:03.856Z,8.63
2018-06-08T20:46:34.235Z,8.83
2018-06-08T20:49:03.244Z,8.20
2018-06-08T20:51:32.259Z,10.40
2018-06-08T20:54:01.172Z,8.83
2018-06-08T20:56:30.200Z,8.27
2018-06-08T20:59:00.753Z,8.00
2018-06-08T21:01:30.201Z,10.40
2018-06-08T21:04:00.868Z,10.13
2018-06-08T21:06:29.891Z,9.20
2018-06-08T21:08:58.901Z,8.60
2018-06-08T21:11:29.377Z,9.67
2018-06-08T21:14:00.287Z,8.03
2018-06-08T21:16:31.318Z,7.90
2018-06-08T21:19:03.790Z,9.20
2018-06-08T21:21:32.799Z,9.13
2018-06-08T21:24:01.736Z,9.13
2018-06-08T21:26:30.735Z,9.83
2018-06-08T21:28:59.663Z,8.70
2018-06-08T21:31:28.791Z,9.40
2018-06-08T21:34:05.170Z,9.50
2018-06-08T21:36:34.144Z,8.83
2018-06-08T21:39:05.593Z,9.37
2018-06-08T21:41:38.363Z,7.93
2018-06-08T21:44:07.391Z,10.30
2018-06-08T21:46:38.000Z,9.57
2018-06-08T21:49:06.679Z,9.10
2018-06-08T21:51:35.779Z,10.07
2018-06-08T21:54:05.473Z,13.40
2018-06-08T21:56:34.400Z,11.63
2018-06-08T21:59:05.932Z,11.10
2018-06-08T22:01:34.630Z,11.87
2018-06-08T22:04:04.739Z,9.97
2018-06-08T22:06:33.779Z,9.57
2018-06-08T22:09:06.207Z,10.60
2018-06-08T22:11:36.772Z,10.80
2018-06-08T22:14:09.849Z,10.73
2018-06-08T22:16:40.056Z,12.67
2018-06-08T22:19:10.204Z,11.70
2018-06-08T22:21:38.881Z,10.83
2018-06-08T22:24:07.716Z,10.43
2018-06-08T22:26:36.855Z,10.30
2018-06-08T22:29:05.807Z,11.40
2018-06-08T22:31:34.824Z,9.90
2018-06-08T22:34:05.679Z,9.70
2018-06-08T22:36:34.535Z,13.17
2018-06-08T22:39:06.134Z,12.10
2018-06-08T22:41:41.384Z,9.87
2018-06-08T22:44:10.348Z,8.97
2018-06-08T22:46:41.404Z,11.43
2018-06-08T22:49:10.385Z,10.40
2018-06-08T22:51:39.596Z,10.23
2018-06-08T22:54:08.581Z,12.17
2018-06-08T22:56:38.080Z,9.70
2018-06-08T22:59:08.736Z,12.57
2018-06-08T23:01:37.691Z,10.97
2018-06-08T23:04:08.215Z,10.23
2018-06-08T23:06:37.276Z,9.93
2018-06-08T23:09:07.577Z,11.07
2018-06-08T23:11:38.230Z,12.00
2018-06-08T23:14:15.659Z,10.50
2018-06-08T23:16:46.737Z,11.17
2018-06-08T23:19:15.442Z,9.60
2018-06-08T23:21:46.776Z,10.00
2018-06-08T23:24:15.458Z,9.90
2018-06-08T23:26:44.303Z,9.93
2018-06-08T23:29:13.330Z,10.40
2018-06-08T23:31:42.816Z,9.90
2018-06-08T23:34:13.277Z,11.43
2018-06-08T23:36:42.240Z,11.07
2018-06-08T23:39:12.701Z,10.17
2018-06-08T23:41:44.294Z,11.70
2018-06-08T23:44:13.437Z,11.20
2018-06-08T23:46:43.984Z,14.10
2018-06-08T23:49:12.783Z,10.20
2018-06-08T23:51:41.615Z,12.43
2018-06-08T23:54:10.725Z,11.53
2018-06-08T23:56:39.644Z,11.30
2018-06-08T23:59:10.036Z,11.20
